createdAt,value
2022-09-24T00:00:40.220Z,28.3
2022-09-24T00:01:42.480Z,28.7
2022-09-24T00:02:45.063Z,28.7
2022-09-24T00:03:47.614Z,28.4
2022-09-24T00:04:50.085Z,28.7
2022-09-24T00:05:52.286Z,28.8
2022-09-24T00:06:54.509Z,28.7
2022-09-24T00:07:57.058Z,28.6
2022-09-24T00:08:59.540Z,28.4
2022-09-24T00:10:01.497Z,28.6
2022-09-24T00:11:04.001Z,28.4
2022-09-24T00:12:06.502Z,28.7
2022-09-24T00:13:08.427Z,29
2022-09-24T00:14:10.945Z,28.5
2022-09-24T00:15:13.335Z,28.9
2022-09-24T00:16:15.583Z,28.3
2022-09-24T00:17:18.226Z,29
2022-09-24T00:18:20.466Z,28.9
2022-09-24T00:19:22.658Z,28.5
2022-09-24T00:20:24.848Z,28.9
2022-09-24T00:21:25.931Z,29.1
2022-09-24T00:22:28.437Z,28.8
2022-09-24T00:23:30.902Z,28.8
2022-09-24T00:24:33.365Z,28.7
2022-09-24T00:25:35.871Z,28.6
2022-09-24T00:26:38.361Z,28.7
2022-09-24T00:27:40.335Z,28.9
2022-09-24T00:28:42.811Z,29
2022-09-24T00:29:45.012Z,28.8
2022-09-24T00:30:47.484Z,28.3
2022-09-24T00:31:49.454Z,29
2022-09-24T00:32:52.091Z,28.9
2022-09-24T00:33:54.566Z,28.8
2022-09-24T00:34:57.049Z,28.9
2022-09-24T00:35:59.521Z,28.6
2022-09-24T00:37:01.734Z,29
2022-09-24T00:38:03.987Z,28.8
2022-09-24T00:39:06.455Z,29.2
2022-09-24T00:40:08.975Z,29.1
2022-09-24T00:41:11.324Z,28.8
2022-09-24T00:42:13.810Z,28.9
2022-09-24T00:43:16.045Z,29
2022-09-24T00:44:18.540Z,28.6
2022-09-24T00:45:21.009Z,28.9
2022-09-24T00:46:23.255Z,28.7
2022-09-24T00:47:25.770Z,28.7
2022-09-24T00:48:27.971Z,28.7
2022-09-24T00:49:30.436Z,28.7
2022-09-24T00:50:32.905Z,28.7
2022-09-24T00:51:35.128Z,28.9
2022-09-24T00:52:37.590Z,28.8
2022-09-24T00:53:39.817Z,28.9
2022-09-24T00:54:42.017Z,28.9
2022-09-24T00:55:43.957Z,28.9
2022-09-24T00:56:46.549Z,29.1
2022-09-24T00:57:48.461Z,29.1
2022-09-24T00:58:50.689Z,28.6
2022-09-24T00:59:52.634Z,28.7
2022-09-24T01:00:55.166Z,28.8
2022-09-24T01:01:57.947Z,28.7
2022-09-24T01:03:01.040Z,28.9
2022-09-24T01:04:03.538Z,28.8
2022-09-24T01:05:05.763Z,28.7
2022-09-24T01:06:07.956Z,29.3
2022-09-24T01:07:10.453Z,29.1
2022-09-24T01:08:12.932Z,29.1
2022-09-24T01:09:15.420Z,29.2
2022-09-24T01:10:17.617Z,28.9
2022-09-24T01:11:19.806Z,29.1
2022-09-24T01:12:22.312Z,29.2
2022-09-24T01:13:24.524Z,29.1
2022-09-24T01:14:26.789Z,28.5
2022-09-24T01:15:28.707Z,29.2
2022-09-24T01:16:30.786Z,28.7
2022-09-24T01:17:33.406Z,29.1
2022-09-24T01:18:35.912Z,28.9
2022-09-24T01:19:38.394Z,29.1
2022-09-24T01:20:40.890Z,28.8
2022-09-24T01:21:43.356Z,28.9
2022-09-24T01:22:45.555Z,29
2022-09-24T01:23:48.893Z,28.8
2022-09-24T01:24:51.431Z,29.2
2022-09-24T01:25:53.895Z,28.6
2022-09-24T01:26:56.096Z,29
2022-09-24T01:27:58.011Z,28.8
2022-09-24T01:29:00.511Z,28.8
2022-09-24T01:30:03.024Z,28.8
2022-09-24T01:31:04.990Z,29.2
2022-09-24T01:32:07.812Z,29.2
2022-09-24T01:33:10.282Z,28.6
2022-09-24T01:34:12.207Z,29.2
2022-09-24T01:35:14.681Z,29.1
2022-09-24T01:36:17.146Z,29.1
2022-09-24T01:37:19.330Z,29.1
2022-09-24T01:38:21.518Z,29
2022-09-24T01:39:23.719Z,28.9
2022-09-24T01:40:26.226Z,29.2
2022-09-24T01:41:28.492Z,29
2022-09-24T01:42:30.967Z,28.8
2022-09-24T01:43:33.186Z,28.5
2022-09-24T01:44:35.676Z,28.7
2022-09-24T01:45:37.904Z,28.8
2022-09-24T01:46:40.453Z,29
2022-09-24T01:47:43.460Z,29.1
2022-09-24T01:48:45.685Z,29.2
2022-09-24T01:49:47.608Z,29.1
2022-09-24T01:50:50.075Z,29.1
2022-09-24T01:51:51.992Z,29.2
2022-09-24T01:52:54.468Z,28.8
2022-09-24T01:53:56.662Z,29.1
2022-09-24T01:54:59.135Z,29.2
2022-09-24T01:56:01.356Z,29.3
2022-09-24T01:57:03.252Z,29.1
2022-09-24T01:58:05.440Z,29.3
2022-09-24T01:59:07.664Z,29.1
2022-09-24T02:00:10.159Z,29.1
2022-09-24T02:01:12.709Z,28.7
2022-09-24T02:02:15.066Z,29
2022-09-24T02:03:17.960Z,29.1
2022-09-24T02:04:20.438Z,28.8
2022-09-24T02:05:22.642Z,28.7
2022-09-24T02:06:24.560Z,29
2022-09-24T02:07:26.764Z,29.1
2022-09-24T02:08:29.230Z,29
2022-09-24T02:09:31.410Z,29.4
2022-09-24T02:10:33.598Z,29.1
2022-09-24T02:11:35.819Z,29.1
2022-09-24T02:12:38.323Z,29
2022-09-24T02:13:40.526Z,29.4
2022-09-24T02:14:42.446Z,29
2022-09-24T02:15:44.681Z,29.1
2022-09-24T02:16:47.464Z,29.1
2022-09-24T02:17:49.671Z,29.1
2022-09-24T02:18:51.865Z,29
2022-09-24T02:19:54.067Z,29.3
2022-09-24T02:20:55.967Z,28.9
2022-09-24T02:21:58.450Z,29.1
2022-09-24T02:23:00.935Z,29.1
2022-09-24T02:24:03.406Z,29
2022-09-24T02:25:05.726Z,29.4
2022-09-24T02:26:07.071Z,28.9
2022-09-24T02:27:08.985Z,29.3
2022-09-24T02:28:11.472Z,29.3
2022-09-24T02:29:13.101Z,29.1
2022-09-24T02:30:15.342Z,29
2022-09-24T02:31:17.622Z,29.3
2022-09-24T02:32:20.506Z,29.3
2022-09-24T02:33:22.970Z,29
2022-09-24T02:34:25.185Z,29.2
2022-09-24T02:35:27.391Z,29
2022-09-24T02:36:29.868Z,29.2
2022-09-24T02:37:32.343Z,29.3
2022-09-24T02:38:34.537Z,29
2022-09-24T02:39:36.165Z,29
2022-09-24T02:40:38.160Z,29.2
2022-09-24T02:41:40.962Z,29.2
2022-09-24T02:42:43.184Z,29.1
2022-09-24T02:43:45.402Z,29.1
2022-09-24T02:44:47.874Z,29.1
2022-09-24T02:45:50.103Z,29
2022-09-24T02:46:52.753Z,29.3
2022-09-24T02:47:55.699Z,29
2022-09-24T02:48:58.173Z,28.9
2022-09-24T02:50:00.394Z,28.9
2022-09-24T02:51:02.580Z,29.1
2022-09-24T02:52:04.775Z,29.1
2022-09-24T02:53:06.972Z,29.2
2022-09-24T02:54:09.488Z,29.1
2022-09-24T02:55:11.795Z,29.1
2022-09-24T02:56:14.279Z,28.8
2022-09-24T02:57:16.758Z,29
2022-09-24T02:58:19.340Z,29
2022-09-24T02:59:21.823Z,29.4
2022-09-24T03:00:23.741Z,29.3
2022-09-24T03:01:26.294Z,29.2
2022-09-24T03:02:28.762Z,29
2022-09-24T03:03:32.238Z,29
2022-09-24T03:04:34.448Z,29.1
2022-09-24T03:05:36.641Z,28.9
2022-09-24T03:06:38.837Z,29.3
2022-09-24T03:07:40.760Z,29.2
2022-09-24T03:08:43.245Z,29.3
2022-09-24T03:09:45.442Z,28.7
2022-09-24T03:10:47.364Z,28.9
2022-09-24T03:11:49.835Z,28.8
2022-09-24T03:12:52.307Z,28.7
2022-09-24T03:13:54.798Z,28.8
2022-09-24T03:14:57.279Z,28.6
2022-09-24T03:15:59.541Z,28.8
2022-09-24T03:17:02.495Z,28.9
2022-09-24T03:18:04.686Z,28.9
2022-09-24T03:19:07.009Z,29
2022-09-24T03:20:08.929Z,29
2022-09-24T03:21:11.404Z,28.4
2022-09-24T03:22:13.323Z,28.9
2022-09-24T03:23:15.514Z,29
2022-09-24T03:24:17.687Z,28.9
2022-09-24T03:25:20.259Z,28.6
2022-09-24T03:26:22.206Z,28.4
2022-09-24T03:27:24.675Z,28.8
2022-09-24T03:28:26.604Z,28.8
2022-09-24T03:29:29.092Z,28.5
2022-09-24T03:30:31.287Z,28.4
2022-09-24T03:31:33.856Z,28.8
2022-09-24T03:32:36.807Z,28.5
2022-09-24T03:33:39.026Z,28.8
2022-09-24T03:34:41.257Z,28.6
2022-09-24T03:35:43.178Z,28.3
2022-09-24T03:36:44.798Z,28.7
2022-09-24T03:37:49.136Z,28.6
2022-09-24T03:38:51.712Z,28.6
2022-09-24T03:39:54.182Z,28.6
2022-09-24T03:40:56.735Z,28.5
2022-09-24T03:41:59.243Z,28.8
2022-09-24T03:43:01.719Z,28.5
2022-09-24T03:44:04.190Z,28.6
2022-09-24T03:45:06.975Z,28.4
2022-09-24T03:46:08.969Z,28.8
2022-09-24T03:47:11.729Z,28.7
2022-09-24T03:48:13.975Z,28.6
2022-09-24T03:49:16.468Z,28.3
2022-09-24T03:50:19.004Z,28.5
2022-09-24T03:51:21.471Z,28.3
2022-09-24T03:52:23.658Z,28.3
2022-09-24T03:53:26.136Z,28.4
2022-09-24T03:54:28.333Z,28.5
2022-09-24T03:55:30.252Z,28.3
2022-09-24T03:56:32.444Z,28.5
2022-09-24T03:57:34.363Z,28.4
2022-09-24T03:58:36.270Z,28.5
2022-09-24T03:59:38.747Z,28.5
2022-09-24T04:00:41.398Z,28.6
2022-09-24T04:01:43.657Z,28.5
2022-09-24T04:02:45.880Z,28.6
2022-09-24T04:03:47.955Z,28.6
2022-09-24T04:04:50.465Z,28.2
2022-09-24T04:05:52.785Z,28.3
2022-09-24T04:06:55.285Z,28.2
2022-09-24T04:07:57.483Z,28.2
2022-09-24T04:08:59.677Z,28.6
2022-09-24T04:10:02.153Z,28.5
2022-09-24T04:11:04.622Z,28.4
2022-09-24T04:12:07.106Z,28.4
2022-09-24T04:13:09.593Z,28.2
2022-09-24T04:14:11.256Z,28.3
2022-09-24T04:15:13.652Z,28.4
2022-09-24T04:16:15.954Z,28.5
2022-09-24T04:17:18.811Z,28.4
2022-09-24T04:18:21.297Z,28.3
2022-09-24T04:19:23.544Z,28.5
2022-09-24T04:20:26.042Z,28.6
2022-09-24T04:21:28.566Z,28.5
2022-09-24T04:22:30.749Z,28.3
2022-09-24T04:23:33.270Z,28.8
2022-09-24T04:24:35.176Z,28.4
2022-09-24T04:25:37.649Z,28.4
2022-09-24T04:26:39.842Z,28.5
2022-09-24T04:27:42.016Z,28.3
2022-09-24T04:28:44.495Z,28.5
2022-09-24T04:29:46.958Z,28.3
2022-09-24T04:30:48.664Z,28.1
2022-09-24T04:31:51.316Z,28.4
2022-09-24T04:32:54.454Z,28.6
2022-09-24T04:33:56.943Z,28.6
2022-09-24T04:35:00.344Z,28.5
2022-09-24T04:36:06.583Z,28.2
2022-09-24T04:37:08.894Z,28.3
2022-09-24T04:38:11.379Z,28.4
2022-09-24T04:39:13.845Z,28.3
2022-09-24T04:40:16.409Z,28.3
2022-09-24T04:41:19.268Z,28.4
2022-09-24T04:42:21.474Z,28.5
2022-09-24T04:43:23.665Z,28.5
2022-09-24T04:44:26.154Z,28.3
2022-09-24T04:45:28.365Z,28.2
2022-09-24T04:46:30.947Z,28.2
2022-09-24T04:47:33.993Z,28
2022-09-24T04:48:36.464Z,28.5
2022-09-24T04:49:38.993Z,28.4
2022-09-24T04:50:45.678Z,28.3
2022-09-24T04:51:46.195Z,28.2
2022-09-24T04:52:48.747Z,28.3
2022-09-24T04:53:50.967Z,28.2
2022-09-24T04:54:53.177Z,28.3
2022-09-24T04:55:55.666Z,28.5
2022-09-24T04:56:57.908Z,28.3
2022-09-24T04:57:59.823Z,28.3
2022-09-24T04:59:01.819Z,28.3
2022-09-24T05:00:04.095Z,28.2
2022-09-24T05:01:05.741Z,27.9
2022-09-24T05:02:09.583Z,28.2
2022-09-24T05:03:13.058Z,28.3
2022-09-24T05:04:16.001Z,28
2022-09-24T05:05:18.212Z,28.3
2022-09-24T05:06:22.034Z,28.3
2022-09-24T05:07:24.203Z,28.4
2022-09-24T05:08:26.620Z,28.5
2022-09-24T05:09:28.552Z,28.1
2022-09-24T05:10:30.768Z,28.3
2022-09-24T05:11:33.237Z,28.3
2022-09-24T05:12:35.724Z,28.1
2022-09-24T05:13:38.250Z,28.4
2022-09-24T05:14:40.744Z,28.3
2022-09-24T05:15:43.418Z,28.3
2022-09-24T05:16:46.455Z,28.4
2022-09-24T05:17:48.671Z,28.4
2022-09-24T05:18:50.926Z,28.4
2022-09-24T05:19:52.833Z,28.2
2022-09-24T05:20:55.048Z,28.3
2022-09-24T05:21:57.342Z,28.4
2022-09-24T05:22:59.575Z,28.5
2022-09-24T05:24:02.291Z,28.6
2022-09-24T05:25:04.809Z,28.4
2022-09-24T05:26:07.293Z,28.3
2022-09-24T05:27:09.500Z,28.3
2022-09-24T05:28:11.444Z,28.1
2022-09-24T05:29:13.927Z,28.3
2022-09-24T05:30:15.860Z,28.4
2022-09-24T05:31:17.850Z,28.1
2022-09-24T05:32:20.081Z,28.3
2022-09-24T05:33:22.578Z,28.6
2022-09-24T05:34:25.081Z,28.3
2022-09-24T05:35:27.012Z,28.2
2022-09-24T05:36:28.936Z,28.4
2022-09-24T05:37:31.446Z,28.1
2022-09-24T05:38:33.918Z,28.4
2022-09-24T05:39:40.952Z,28.4
2022-09-24T05:40:43.212Z,28.4
2022-09-24T05:41:45.889Z,28.6
2022-09-24T05:42:48.062Z,28.3
2022-09-24T05:43:50.045Z,28.4
2022-09-24T05:44:52.570Z,28.3
2022-09-24T05:45:54.814Z,28.4
2022-09-24T05:46:57.183Z,28.3
2022-09-24T05:48:00.366Z,28.5
2022-09-24T05:49:02.428Z,28.2
2022-09-24T05:50:04.986Z,28.2
2022-09-24T05:51:06.920Z,28.3
2022-09-24T05:52:08.864Z,28.5
2022-09-24T05:53:10.700Z,28.2
2022-09-24T05:54:12.896Z,28.4
2022-09-24T05:55:15.449Z,28.4
2022-09-24T05:56:17.702Z,28.3
2022-09-24T05:57:20.176Z,28.3
2022-09-24T05:58:22.360Z,28.1
2022-09-24T05:59:24.286Z,28.5
2022-09-24T06:00:26.459Z,28.3
2022-09-24T06:01:28.885Z,28.5
2022-09-24T06:02:31.155Z,28.3
2022-09-24T06:03:34.059Z,28.3
2022-09-24T06:04:36.359Z,28.3
2022-09-24T06:05:38.608Z,28.3
2022-09-24T06:06:41.119Z,28.3
2022-09-24T06:07:43.598Z,28.2
2022-09-24T06:08:45.831Z,28.3
2022-09-24T06:09:48.301Z,28.4
2022-09-24T06:10:50.677Z,28.3
2022-09-24T06:11:52.918Z,28.3
2022-09-24T06:12:54.851Z,28.4
2022-09-24T06:13:57.059Z,28.3
2022-09-24T06:14:58.996Z,28.3
2022-09-24T06:16:00.949Z,28.2
2022-09-24T06:17:03.465Z,28.3
2022-09-24T06:18:05.769Z,28.3
2022-09-24T06:19:08.344Z,28.1
2022-09-24T06:20:10.828Z,28.4
2022-09-24T06:21:13.149Z,28.1
2022-09-24T06:22:15.348Z,28.2
2022-09-24T06:23:17.573Z,28.2
2022-09-24T06:24:19.793Z,28.4
2022-09-24T06:25:21.767Z,28.3
2022-09-24T06:26:24.018Z,28.2
2022-09-24T06:27:26.225Z,28.2
2022-09-24T06:28:28.696Z,28.4
2022-09-24T06:29:31.164Z,28.2
2022-09-24T06:30:33.642Z,28.3
2022-09-24T06:31:35.314Z,28.6
2022-09-24T06:32:38.267Z,28.2
2022-09-24T06:33:40.184Z,28.5
2022-09-24T06:34:42.411Z,27.9
2022-09-24T06:35:44.626Z,28.3
2022-09-24T06:36:47.209Z,28.2
2022-09-24T06:37:49.400Z,28.3
2022-09-24T06:38:51.313Z,28.2
2022-09-24T06:39:53.517Z,28.3
2022-09-24T06:40:56.011Z,28.1
2022-09-24T06:41:58.494Z,28.3
2022-09-24T06:43:00.673Z,28.2
2022-09-24T06:44:02.608Z,28
2022-09-24T06:45:05.084Z,28.3
2022-09-24T06:46:07.333Z,28.4
2022-09-24T06:47:09.648Z,28.2
2022-09-24T06:48:11.821Z,28.2
2022-09-24T06:49:14.034Z,28
2022-09-24T06:50:15.949Z,28.2
2022-09-24T06:51:18.193Z,28
2022-09-24T06:52:20.225Z,28.3
2022-09-24T06:53:22.422Z,28.2
2022-09-24T06:54:24.085Z,28
2022-09-24T06:55:26.601Z,28.1
2022-09-24T06:56:28.792Z,28.2
2022-09-24T06:57:31.331Z,28.4
2022-09-24T06:58:33.813Z,28.3
2022-09-24T06:59:36.311Z,28
2022-09-24T07:00:38.230Z,28.3
2022-09-24T07:01:41.211Z,28.3
2022-09-24T07:02:43.876Z,28.2
2022-09-24T07:03:46.089Z,28.2
2022-09-24T07:04:48.593Z,28.2
2022-09-24T07:05:51.082Z,28.2
2022-09-24T07:06:53.293Z,28.4
2022-09-24T07:07:55.251Z,28
2022-09-24T07:08:57.726Z,28.1
2022-09-24T07:10:00.205Z,28.2
2022-09-24T07:11:02.168Z,27.9
2022-09-24T07:12:04.650Z,28
2022-09-24T07:13:06.919Z,28.1
2022-09-24T07:14:09.397Z,28
2022-09-24T07:15:11.302Z,28
2022-09-24T07:16:13.834Z,28.1
2022-09-24T07:17:16.312Z,28.3
2022-09-24T07:18:18.783Z,28
2022-09-24T07:19:20.430Z,28.1
2022-09-24T07:20:22.966Z,28.2
2022-09-24T07:21:25.056Z,28.2
2022-09-24T07:22:27.000Z,27.9
2022-09-24T07:23:29.487Z,28.2
2022-09-24T07:24:31.976Z,28
2022-09-24T07:25:34.479Z,28.1
2022-09-24T07:26:36.780Z,27.9
2022-09-24T07:27:38.961Z,28.1
2022-09-24T07:28:41.500Z,27.9
2022-09-24T07:29:43.698Z,28.1
2022-09-24T07:30:46.175Z,28.1
2022-09-24T07:31:48.503Z,27.8
2022-09-24T07:32:51.397Z,27.9
2022-09-24T07:33:53.627Z,28.3
2022-09-24T07:34:56.103Z,27.9
2022-09-24T07:35:58.576Z,27.8
2022-09-24T07:37:00.781Z,27.8
2022-09-24T07:38:03.289Z,27.9
2022-09-24T07:39:05.515Z,28
2022-09-24T07:40:07.773Z,28
2022-09-24T07:41:10.570Z,28
2022-09-24T07:42:12.904Z,27.9
2022-09-24T07:43:14.831Z,28.1
2022-09-24T07:44:17.470Z,28
2022-09-24T07:45:19.413Z,28.2
2022-09-24T07:46:21.675Z,28
2022-09-24T07:47:24.426Z,27.9
2022-09-24T07:49:43.212Z,28
2022-09-24T07:50:45.138Z,28
2022-09-24T07:51:46.815Z,28.3
2022-09-24T07:52:48.741Z,28.2
2022-09-24T07:53:51.214Z,28.1
2022-09-24T07:54:53.488Z,28.3
2022-09-24T07:55:55.140Z,28.2
2022-09-24T07:56:57.341Z,28.3
2022-09-24T07:57:59.541Z,27.9
2022-09-24T07:59:02.025Z,28.1
2022-09-24T08:00:04.649Z,28.3
2022-09-24T08:01:07.122Z,28
2022-09-24T08:02:09.419Z,28.1
2022-09-24T08:03:12.334Z,28
2022-09-24T08:04:14.583Z,27.8
2022-09-24T08:05:16.855Z,28.3
2022-09-24T08:06:19.137Z,28.2
2022-09-24T08:07:21.318Z,28.3
2022-09-24T08:08:23.530Z,28.1
2022-09-24T08:09:25.703Z,28.1
2022-09-24T08:10:27.937Z,28.3
2022-09-24T08:11:30.452Z,28.2
2022-09-24T08:12:32.666Z,28.4
2022-09-24T08:13:34.663Z,27.9
2022-09-24T08:14:36.858Z,28.2
2022-09-24T08:15:39.280Z,28.3
2022-09-24T08:16:42.153Z,28.1
2022-09-24T08:17:43.809Z,28.3
2022-09-24T08:18:45.722Z,28.3
2022-09-24T08:19:47.932Z,28.1
2022-09-24T08:20:50.408Z,28.2
2022-09-24T08:21:52.945Z,28.3
2022-09-24T08:22:55.422Z,28
2022-09-24T08:23:57.622Z,28.2
2022-09-24T08:25:00.099Z,28.2
2022-09-24T08:26:02.602Z,28.2
2022-09-24T08:27:04.376Z,28.2
2022-09-24T08:28:06.575Z,28.1
2022-09-24T08:29:08.797Z,28
2022-09-24T08:30:10.983Z,28.1
2022-09-24T08:31:13.638Z,28.2
2022-09-24T08:32:16.306Z,28.3
2022-09-24T08:33:17.934Z,28.1
2022-09-24T08:34:20.135Z,28
2022-09-24T08:35:22.317Z,27.9
2022-09-24T08:36:24.271Z,28
2022-09-24T08:37:25.891Z,27.9
2022-09-24T08:38:28.087Z,28.1
2022-09-24T08:39:30.586Z,28.1
2022-09-24T08:40:32.866Z,28.1
2022-09-24T08:41:35.892Z,28.1
2022-09-24T08:42:38.399Z,28.1
2022-09-24T08:43:40.606Z,28
2022-09-24T08:44:42.836Z,28.1
2022-09-24T08:45:45.303Z,28.1
2022-09-24T08:46:47.596Z,28
2022-09-24T08:47:50.165Z,28
2022-09-24T08:48:51.794Z,27.9
2022-09-24T08:49:53.721Z,28
2022-09-24T08:50:55.927Z,28.2
2022-09-24T08:51:57.833Z,28
2022-09-24T08:53:00.312Z,28.2
2022-09-24T08:54:02.591Z,28.3
2022-09-24T08:55:04.948Z,27.9
2022-09-24T08:56:07.424Z,28
2022-09-24T08:57:09.918Z,28.1
2022-09-24T08:58:12.094Z,27.8
2022-09-24T08:59:14.303Z,27.9
2022-09-24T09:00:16.823Z,28
2022-09-24T09:01:19.109Z,28.1
2022-09-24T09:02:22.409Z,28
2022-09-24T09:03:25.516Z,28
2022-09-24T09:04:28.003Z,28.1
2022-09-24T09:05:30.477Z,28.1
2022-09-24T09:06:32.706Z,28
2022-09-24T09:07:34.334Z,28.1
2022-09-24T09:09:06.125Z,27.9
2022-09-24T09:09:41.530Z,28
2022-09-24T09:10:43.465Z,27.9
2022-09-24T09:11:45.940Z,28
2022-09-24T09:12:48.140Z,28.1
2022-09-24T09:13:50.316Z,28.3
2022-09-24T09:14:52.790Z,28
2022-09-24T09:15:54.853Z,28
2022-09-24T09:16:57.535Z,28.1
2022-09-24T09:17:59.848Z,28
2022-09-24T09:19:02.125Z,28.2
2022-09-24T09:20:04.674Z,27.9
2022-09-24T09:21:07.149Z,27.8
2022-09-24T09:22:09.652Z,28
2022-09-24T09:23:11.841Z,27.9
2022-09-24T09:24:14.043Z,27.9
2022-09-24T09:25:16.229Z,28
2022-09-24T09:26:18.707Z,28.1
2022-09-24T09:27:20.906Z,28.2
2022-09-24T09:28:23.150Z,28
2022-09-24T09:29:25.634Z,28.1
2022-09-24T09:30:27.559Z,28
2022-09-24T09:31:29.667Z,28.4
2022-09-24T09:32:32.645Z,27.9
2022-09-24T09:33:35.257Z,28
2022-09-24T09:34:37.459Z,28.1
2022-09-24T09:35:39.652Z,28.2
2022-09-24T09:36:41.563Z,27.8
2022-09-24T09:37:44.043Z,28.2
2022-09-24T09:38:46.254Z,28.1
2022-09-24T09:39:47.898Z,27.9
2022-09-24T09:40:50.478Z,28.2
2022-09-24T09:41:53.377Z,28.1
2022-09-24T09:42:55.581Z,28.2
2022-09-24T09:43:58.160Z,28
2022-09-24T09:45:00.371Z,27.9
2022-09-24T09:46:02.354Z,28.1
2022-09-24T09:47:05.066Z,28
2022-09-24T09:48:07.260Z,27.9
2022-09-24T09:49:09.537Z,27.9
2022-09-24T09:50:11.199Z,28.1
2022-09-24T09:51:13.406Z,27.8
2022-09-24T09:52:19.379Z,28.3
2022-09-24T09:53:21.868Z,27.9
2022-09-24T09:54:24.095Z,28.1
2022-09-24T09:55:26.563Z,28
2022-09-24T09:56:28.748Z,28.1
2022-09-24T09:57:31.229Z,27.9
2022-09-24T09:58:33.407Z,28.2
2022-09-24T09:59:35.612Z,28.1
2022-09-24T10:00:37.833Z,28
2022-09-24T10:01:40.018Z,28
2022-09-24T10:02:43.341Z,28.1
2022-09-24T10:03:46.296Z,28
2022-09-24T10:04:51.955Z,27.8
2022-09-24T10:05:53.883Z,27.9
2022-09-24T10:06:56.412Z,27.9
2022-09-24T10:07:58.609Z,27.9
2022-09-24T10:09:00.807Z,28.1
2022-09-24T10:10:03.002Z,28.2
2022-09-24T10:11:05.017Z,28
2022-09-24T10:12:07.382Z,27.9
2022-09-24T10:13:09.983Z,28.1
2022-09-24T10:14:12.351Z,28.1
2022-09-24T10:15:14.669Z,28.1
2022-09-24T10:16:16.681Z,28.1
2022-09-24T10:17:19.569Z,28.1
2022-09-24T10:18:22.073Z,28.2
2022-09-24T10:19:24.264Z,28.2
2022-09-24T10:20:26.916Z,28.1
2022-09-24T10:21:29.114Z,28.2
2022-09-24T10:22:31.328Z,28.4
2022-09-24T10:23:33.506Z,28
2022-09-24T10:24:35.729Z,28.1
2022-09-24T10:25:37.912Z,28.2
2022-09-24T10:26:44.676Z,28.2
2022-09-24T10:27:45.383Z,28.2
2022-09-24T10:28:47.860Z,28.3
2022-09-24T10:29:50.339Z,28.5
2022-09-24T10:30:52.607Z,28.1
2022-09-24T10:31:55.487Z,28.1
2022-09-24T10:32:57.681Z,28.4
2022-09-24T10:33:59.926Z,28.1
2022-09-24T10:35:02.326Z,28.3
2022-09-24T10:36:04.724Z,28.6
2022-09-24T10:37:10.875Z,28.5
2022-09-24T10:38:12.199Z,28.4
2022-09-24T10:39:14.685Z,28.4
2022-09-24T10:40:17.232Z,28.4
2022-09-24T10:41:19.451Z,28.5
2022-09-24T10:42:21.929Z,28.2
2022-09-24T10:43:24.487Z,28.4
2022-09-24T10:44:26.967Z,28.3
2022-09-24T10:45:28.605Z,28.2
2022-09-24T10:46:30.830Z,28.4
2022-09-24T10:47:33.388Z,28.8
2022-09-24T10:48:35.878Z,28.3
2022-09-24T10:49:37.833Z,28.7
2022-09-24T10:50:40.035Z,28.4
2022-09-24T10:51:42.291Z,28.3
2022-09-24T10:52:44.531Z,28.8
2022-09-24T10:53:46.776Z,28.7
2022-09-24T10:54:48.983Z,28.9
2022-09-24T10:55:50.924Z,28.8
2022-09-24T10:56:53.420Z,29
2022-09-24T10:57:55.887Z,28.8
2022-09-24T10:58:57.798Z,28.7
2022-09-24T10:59:59.997Z,28.7
2022-09-24T11:01:02.475Z,28.8
2022-09-24T11:02:05.061Z,28.9
2022-09-24T11:03:08.275Z,29.1
2022-09-24T11:04:11.154Z,28.7
2022-09-24T11:05:13.243Z,28.6
2022-09-24T11:06:15.722Z,28.4
2022-09-24T11:07:18.259Z,28.4
2022-09-24T11:08:20.738Z,28.5
2022-09-24T11:09:22.670Z,28.8
2022-09-24T11:10:24.873Z,28.4
2022-09-24T11:11:27.070Z,28.7
2022-09-24T11:12:29.267Z,28.5
2022-09-24T11:13:31.196Z,28.6
2022-09-24T11:14:33.397Z,28.9
2022-09-24T11:15:35.928Z,28.3
2022-09-24T11:16:38.676Z,28.6
2022-09-24T11:17:41.256Z,28.8
2022-09-24T11:18:43.452Z,28.9
2022-09-24T11:19:45.955Z,28.8
2022-09-24T11:20:48.231Z,28.7
2022-09-24T11:21:50.472Z,28.8
2022-09-24T11:22:53.187Z,28.4
2022-09-24T11:23:55.396Z,28.6
2022-09-24T11:24:57.598Z,28.8
2022-09-24T11:25:59.796Z,28.6
2022-09-24T11:27:02.279Z,28.8
2022-09-24T11:28:03.927Z,28.5
2022-09-24T11:29:06.627Z,28.5
2022-09-24T11:30:08.840Z,28.2
2022-09-24T11:31:11.099Z,28.6
2022-09-24T11:32:13.295Z,28.7
2022-09-24T11:33:19.453Z,28.3
2022-09-24T11:34:20.802Z,28.5
2022-09-24T11:35:22.995Z,28.7
2022-09-24T11:36:24.963Z,28.8
2022-09-24T11:37:27.164Z,28.5
2022-09-24T11:38:29.797Z,28.5
2022-09-24T11:39:31.744Z,28.4
2022-09-24T11:40:34.341Z,28.2
2022-09-24T11:41:37.267Z,28.6
2022-09-24T11:42:39.453Z,28.5
2022-09-24T11:43:41.669Z,28.5
2022-09-24T11:44:43.922Z,28.5
2022-09-24T11:45:46.152Z,28.6
2022-09-24T11:46:48.698Z,28.4
2022-09-24T11:47:51.440Z,28.4
2022-09-24T11:48:53.719Z,28.3
2022-09-24T11:49:56.202Z,28.6
2022-09-24T11:50:58.791Z,28.2
2022-09-24T11:52:01.094Z,28.7
2022-09-24T11:53:03.093Z,28.2
2022-09-24T11:54:05.558Z,28.6
2022-09-24T11:55:08.250Z,28.6
2022-09-24T11:56:13.169Z,28.1
2022-09-24T11:57:15.651Z,28.4
2022-09-24T11:58:18.217Z,28.3
2022-09-24T11:59:20.142Z,28.8
2022-09-24T12:00:21.844Z,28.5
2022-09-24T12:01:24.033Z,28.6
2022-09-24T12:02:26.448Z,28.3
2022-09-24T12:03:29.588Z,28.5
2022-09-24T12:04:31.976Z,28.3
2022-09-24T12:05:34.162Z,28.2
2022-09-24T12:06:36.381Z,28.4
2022-09-24T12:07:38.456Z,28.4
2022-09-24T12:08:40.952Z,28.5
2022-09-24T12:09:43.491Z,28.7
2022-09-24T12:10:45.687Z,28.3
2022-09-24T12:11:47.624Z,28.3
2022-09-24T12:12:50.118Z,28.7
2022-09-24T12:13:52.076Z,28.6
2022-09-24T12:14:54.549Z,28.6
2022-09-24T12:15:56.784Z,28.8
2022-09-24T12:16:59.300Z,28.7
2022-09-24T12:18:01.783Z,28.6
2022-09-24T12:19:04.260Z,28.8
2022-09-24T12:20:06.761Z,28.7
2022-09-24T12:21:09.229Z,28.5
2022-09-24T12:22:11.429Z,28.3
2022-09-24T12:23:13.945Z,28.8
2022-09-24T12:24:15.923Z,28.7
2022-09-24T12:25:18.457Z,28.6
2022-09-24T12:26:20.657Z,28.4
2022-09-24T12:27:22.851Z,29
2022-09-24T12:28:25.436Z,28.6
2022-09-24T12:29:28.418Z,28.8
2022-09-24T12:30:30.634Z,28.7
2022-09-24T12:31:32.637Z,28.4
2022-09-24T12:32:35.448Z,28.4
2022-09-24T12:33:37.355Z,28.6
2022-09-24T12:34:39.862Z,28.5
2022-09-24T12:35:42.371Z,28.7
2022-09-24T12:36:44.578Z,28.9
2022-09-24T12:37:46.769Z,28.8
2022-09-24T12:38:49.270Z,28.6
2022-09-24T12:39:51.751Z,28.5
2022-09-24T12:40:54.363Z,28.6
2022-09-24T12:41:56.645Z,28.8
2022-09-24T12:42:58.288Z,28.5
2022-09-24T12:44:00.222Z,28.9
2022-09-24T12:45:02.947Z,28.8
2022-09-24T12:46:04.950Z,28.7
2022-09-24T12:47:07.875Z,28.4
2022-09-24T12:48:10.354Z,28.6
2022-09-24T12:49:12.829Z,28.2
2022-09-24T12:50:15.067Z,28.6
2022-09-24T12:51:17.294Z,28.3
2022-09-24T12:52:19.770Z,28.7
2022-09-24T12:53:21.678Z,28.7
2022-09-24T12:54:23.895Z,28.6
2022-09-24T12:55:26.102Z,28.3
2022-09-24T12:56:28.677Z,29
2022-09-24T12:57:30.877Z,28.6
2022-09-24T12:58:33.383Z,28.5
2022-09-24T12:59:35.577Z,28.8
2022-09-24T13:00:37.767Z,28.8
2022-09-24T13:01:40.115Z,28.8
2022-09-24T13:02:43.813Z,28.7
2022-09-24T13:03:47.512Z,28.5
2022-09-24T13:04:49.862Z,28.8
2022-09-24T13:05:52.113Z,28.3
2022-09-24T13:06:54.668Z,28.5
2022-09-24T13:07:56.623Z,28.4
2022-09-24T13:08:59.097Z,28.6
2022-09-24T13:10:01.599Z,28.3
2022-09-24T13:11:03.235Z,28.6
2022-09-24T13:12:05.493Z,28.4
2022-09-24T13:13:07.424Z,28.4
2022-09-24T13:14:09.676Z,28.3
2022-09-24T13:15:12.574Z,28.5
2022-09-24T13:16:14.251Z,28.7
2022-09-24T13:17:17.227Z,28.9
2022-09-24T13:18:19.466Z,28.5
2022-09-24T13:19:21.389Z,28.4
2022-09-24T13:20:23.320Z,28.8
2022-09-24T13:21:25.256Z,28.2
2022-09-24T13:22:27.743Z,28.6
2022-09-24T13:23:29.941Z,28.3
2022-09-24T13:24:32.139Z,28.4
2022-09-24T13:25:34.550Z,28.4
2022-09-24T13:26:36.756Z,28.4
2022-09-24T13:27:39.462Z,28.6
2022-09-24T13:28:44.958Z,28.4
2022-09-24T13:29:46.419Z,28.3
2022-09-24T13:30:48.362Z,28.8
2022-09-24T13:31:50.822Z,28.8
2022-09-24T13:32:53.295Z,28.4
2022-09-24T13:33:55.777Z,28.2
2022-09-24T13:34:58.025Z,28.7
2022-09-24T13:36:00.513Z,28.7
2022-09-24T13:37:02.728Z,28.5
2022-09-24T13:38:04.668Z,28.7
2022-09-24T13:39:07.141Z,28.6
2022-09-24T13:40:09.831Z,28.2
2022-09-24T13:41:12.644Z,28.4
2022-09-24T13:42:15.009Z,28.5
2022-09-24T13:43:17.673Z,28.3
2022-09-24T13:44:19.886Z,28.3
2022-09-24T13:45:22.078Z,28.4
2022-09-24T13:46:24.594Z,28.3
2022-09-24T13:47:27.122Z,28.3
2022-09-24T13:48:29.601Z,28.3
2022-09-24T13:49:32.097Z,28.5
2022-09-24T13:50:34.305Z,28.7
2022-09-24T13:51:36.773Z,28.5
2022-09-24T13:52:38.710Z,28.6
2022-09-24T13:53:41.199Z,28.3
2022-09-24T13:54:43.682Z,28.3
2022-09-24T13:55:46.154Z,28.6
2022-09-24T13:56:48.405Z,28.6
2022-09-24T13:57:50.879Z,28.8